sensor_id;sensor_type;location;lat;lon;timestamp;P1;durP1;ratioP1;P2;durP2;ratioP2
20482;SDS011;10400;53.198;6.592;2022-09-16T00:02:03;7.32;;;1.55;;
20482;SDS011;10400;53.198;6.592;2022-09-16T00:04:29;6.00;;;1.25;;
20482;SDS011;10400;53.198;6.592;2022-09-16T00:06:55;6.95;;;1.33;;
20482;SDS011;10400;53.198;6.592;2022-09-16T00:09:20;5.03;;;1.00;;
20482;SDS011;10400;53.198;6.592;2022-09-16T00:11:46;8.43;;;1.30;;
20482;SDS011;10400;53.198;6.592;2022-09-16T00:14:11;4.38;;;1.00;;
20482;SDS011;10400;53.198;6.592;2022-09-16T00:16:37;6.93;;;1.67;;
20482;SDS011;10400;53.198;6.592;2022-09-16T00:19:03;8.10;;;1.52;;
20482;SDS011;10400;53.198;6.592;2022-09-16T00:21:28;5.80;;;1.15;;
20482;SDS011;10400;53.198;6.592;2022-09-16T00:23:54;5.43;;;1.52;;
20482;SDS011;10400;53.198;6.592;2022-09-16T00:26:21;7.05;;;1.92;;
20482;SDS011;10400;53.198;6.592;2022-09-16T00:28:47;4.72;;;1.00;;
20482;SDS011;10400;53.198;6.592;2022-09-16T00:31:14;5.47;;;0.98;;
20482;SDS011;10400;53.198;6.592;2022-09-16T00:33:40;7.30;;;1.23;;
20482;SDS011;10400;53.198;6.592;2022-09-16T00:36:15;5.95;;;1.15;;
20482;SDS011;10400;53.198;6.592;2022-09-16T00:38:43;5.50;;;1.00;;
20482;SDS011;10400;53.198;6.592;2022-09-16T00:41:11;5.72;;;1.10;;
20482;SDS011;10400;53.198;6.592;2022-09-16T00:43:50;5.55;;;1.10;;
20482;SDS011;10400;53.198;6.592;2022-09-16T00:49:09;8.38;;;1.38;;
20482;SDS011;10400;53.198;6.592;2022-09-16T00:51:45;3.58;;;0.80;;
20482;SDS011;10400;53.198;6.592;2022-09-16T00:54:13;5.55;;;1.30;;
20482;SDS011;10400;53.198;6.592;2022-09-16T00:56:42;4.75;;;1.10;;
20482;SDS011;10400;53.198;6.592;2022-09-16T00:59:13;3.28;;;0.80;;
20482;SDS011;10400;53.198;6.592;2022-09-16T01:01:42;3.95;;;0.60;;
20482;SDS011;10400;53.198;6.592;2022-09-16T01:04:12;7.97;;;1.15;;
20482;SDS011;10400;53.198;6.592;2022-09-16T01:06:42;5.68;;;1.00;;
20482;SDS011;10400;53.198;6.592;2022-09-16T01:09:07;6.75;;;0.70;;
20482;SDS011;10400;53.198;6.592;2022-09-16T01:11:33;3.75;;;0.93;;
20482;SDS011;10400;53.198;6.592;2022-09-16T01:13:59;5.30;;;1.00;;
20482;SDS011;10400;53.198;6.592;2022-09-16T01:25:45;5.82;;;1.02;;
20482;SDS011;10400;53.198;6.592;2022-09-16T01:47:11;5.40;;;1.20;;
20482;SDS011;10400;53.198;6.592;2022-09-16T01:52:33;8.65;;;1.00;;
20482;SDS011;10400;53.198;6.592;2022-09-16T01:55:05;6.00;;;0.88;;
20482;SDS011;10400;53.198;6.592;2022-09-16T02:00:09;11.88;;;1.52;;
20482;SDS011;10400;53.198;6.592;2022-09-16T02:02:53;4.25;;;0.93;;
20482;SDS011;10400;53.198;6.592;2022-09-16T02:08:12;7.40;;;0.90;;
20482;SDS011;10400;53.198;6.592;2022-09-16T02:10:49;5.57;;;0.90;;
20482;SDS011;10400;53.198;6.592;2022-09-16T02:13:21;5.60;;;1.05;;
20482;SDS011;10400;53.198;6.592;2022-09-16T02:15:52;6.47;;;1.20;;
20482;SDS011;10400;53.198;6.592;2022-09-16T02:18:24;6.90;;;1.15;;
20482;SDS011;10400;53.198;6.592;2022-09-16T02:20:53;4.15;;;0.90;;
20482;SDS011;10400;53.198;6.592;2022-09-16T02:23:22;4.45;;;0.90;;
20482;SDS011;10400;53.198;6.592;2022-09-16T02:25:51;9.68;;;1.20;;
20482;SDS011;10400;53.198;6.592;2022-09-16T02:28:22;5.78;;;1.00;;
20482;SDS011;10400;53.198;6.592;2022-09-16T02:30:53;4.80;;;1.20;;
20482;SDS011;10400;53.198;6.592;2022-09-16T02:33:21;2.47;;;1.08;;
20482;SDS011;10400;53.198;6.592;2022-09-16T02:35:50;6.00;;;0.93;;
20482;SDS011;10400;53.198;6.592;2022-09-16T02:38:20;5.93;;;0.93;;
20482;SDS011;10400;53.198;6.592;2022-09-16T02:40:55;5.30;;;0.85;;
20482;SDS011;10400;53.198;6.592;2022-09-16T02:43:23;4.00;;;1.00;;
20482;SDS011;10400;53.198;6.592;2022-09-16T02:48:51;8.05;;;1.35;;
20482;SDS011;10400;53.198;6.592;2022-09-16T02:57:34;2.92;;;1.00;;
20482;SDS011;10400;53.198;6.592;2022-09-16T03:00:00;6.82;;;1.10;;
20482;SDS011;10400;53.198;6.592;2022-09-16T03:02:26;7.72;;;1.50;;
20482;SDS011;10400;53.198;6.592;2022-09-16T03:04:52;6.97;;;1.40;;
20482;SDS011;10400;53.198;6.592;2022-09-16T03:07:18;6.43;;;1.23;;
20482;SDS011;10400;53.198;6.592;2022-09-16T03:09:44;2.85;;;1.00;;
20482;SDS011;10400;53.198;6.592;2022-09-16T03:23:45;8.25;;;1.48;;
20482;SDS011;10400;53.198;6.592;2022-09-16T03:26:24;5.15;;;0.77;;
20482;SDS011;10400;53.198;6.592;2022-09-16T03:31:57;6.30;;;1.17;;
20482;SDS011;10400;53.198;6.592;2022-09-16T03:34:38;7.25;;;1.20;;
20482;SDS011;10400;53.198;6.592;2022-09-16T03:37:10;7.22;;;1.15;;
20482;SDS011;10400;53.198;6.592;2022-09-16T03:39:40;3.60;;;0.90;;
20482;SDS011;10400;53.198;6.592;2022-09-16T03:42:07;8.30;;;1.42;;
20482;SDS011;10400;53.198;6.592;2022-09-16T03:44:38;7.72;;;1.20;;
20482;SDS011;10400;53.198;6.592;2022-09-16T03:47:08;11.38;;;1.70;;
20482;SDS011;10400;53.198;6.592;2022-09-16T03:49:34;6.65;;;1.75;;
20482;SDS011;10400;53.198;6.592;2022-09-16T03:52:01;6.90;;;1.60;;
20482;SDS011;10400;53.198;6.592;2022-09-16T03:54:29;8.98;;;1.50;;
20482;SDS011;10400;53.198;6.592;2022-09-16T03:56:55;4.65;;;1.20;;
20482;SDS011;10400;53.198;6.592;2022-09-16T03:59:21;9.68;;;1.50;;
20482;SDS011;10400;53.198;6.592;2022-09-16T04:01:47;6.15;;;1.10;;
20482;SDS011;10400;53.198;6.592;2022-09-16T04:04:13;7.68;;;1.42;;
20482;SDS011;10400;53.198;6.592;2022-09-16T04:06:39;8.07;;;1.65;;
20482;SDS011;10400;53.198;6.592;2022-09-16T04:09:04;7.05;;;1.30;;
20482;SDS011;10400;53.198;6.592;2022-09-16T04:11:32;7.60;;;1.02;;
20482;SDS011;10400;53.198;6.592;2022-09-16T04:13:59;2.90;;;1.00;;
20482;SDS011;10400;53.198;6.592;2022-09-16T04:16:24;10.38;;;1.48;;
20482;SDS011;10400;53.198;6.592;2022-09-16T04:18:50;15.63;;;1.83;;
20482;SDS011;10400;53.198;6.592;2022-09-16T04:21:16;8.70;;;1.40;;
20482;SDS011;10400;53.198;6.592;2022-09-16T04:23:42;6.18;;;1.17;;
20482;SDS011;10400;53.198;6.592;2022-09-16T04:26:08;7.28;;;1.40;;
20482;SDS011;10400;53.198;6.592;2022-09-16T04:28:35;10.05;;;1.63;;
20482;SDS011;10400;53.198;6.592;2022-09-16T04:31:01;8.55;;;1.42;;
20482;SDS011;10400;53.198;6.592;2022-09-16T04:33:29;14.27;;;1.45;;
20482;SDS011;10400;53.198;6.592;2022-09-16T04:36:07;8.30;;;1.48;;
20482;SDS011;10400;53.198;6.592;2022-09-16T04:38:36;10.27;;;1.50;;
20482;SDS011;10400;53.198;6.592;2022-09-16T04:41:03;7.45;;;1.40;;
20482;SDS011;10400;53.198;6.592;2022-09-16T04:43:33;8.57;;;1.58;;
20482;SDS011;10400;53.198;6.592;2022-09-16T04:45:59;9.85;;;1.20;;
20482;SDS011;10400;53.198;6.592;2022-09-16T04:48:25;5.28;;;1.15;;
20482;SDS011;10400;53.198;6.592;2022-09-16T04:50:51;14.10;;;1.63;;
20482;SDS011;10400;53.198;6.592;2022-09-16T04:53:18;8.32;;;1.13;;
20482;SDS011;10400;53.198;6.592;2022-09-16T04:55:44;7.07;;;1.27;;
20482;SDS011;10400;53.198;6.592;2022-09-16T04:58:10;8.15;;;1.23;;
20482;SDS011;10400;53.198;6.592;2022-09-16T05:00:36;9.02;;;1.35;;
20482;SDS011;10400;53.198;6.592;2022-09-16T05:03:02;9.00;;;2.00;;
20482;SDS011;10400;53.198;6.592;2022-09-16T05:05:28;12.23;;;2.22;;
20482;SDS011;10400;53.198;6.592;2022-09-16T05:07:53;9.60;;;1.30;;
20482;SDS011;10400;53.198;6.592;2022-09-16T05:10:19;11.27;;;1.50;;
20482;SDS011;10400;53.198;6.592;2022-09-16T05:12:49;9.55;;;1.40;;
20482;SDS011;10400;53.198;6.592;2022-09-16T05:15:16;7.85;;;1.30;;
20482;SDS011;10400;53.198;6.592;2022-09-16T05:17:41;11.23;;;1.70;;
20482;SDS011;10400;53.198;6.592;2022-09-16T05:20:07;10.65;;;2.08;;
20482;SDS011;10400;53.198;6.592;2022-09-16T05:22:33;8.35;;;1.73;;
20482;SDS011;10400;53.198;6.592;2022-09-16T05:24:58;8.60;;;1.48;;
20482;SDS011;10400;53.198;6.592;2022-09-16T05:27:24;7.10;;;1.50;;
20482;SDS011;10400;53.198;6.592;2022-09-16T05:29:52;7.57;;;1.50;;
20482;SDS011;10400;53.198;6.592;2022-09-16T05:32:17;8.95;;;1.60;;
20482;SDS011;10400;53.198;6.592;2022-09-16T05:34:43;9.35;;;1.67;;
20482;SDS011;10400;53.198;6.592;2022-09-16T05:37:08;12.05;;;2.13;;
20482;SDS011;10400;53.198;6.592;2022-09-16T05:39:34;15.60;;;2.20;;
20482;SDS011;10400;53.198;6.592;2022-09-16T05:42:00;7.45;;;1.40;;
20482;SDS011;10400;53.198;6.592;2022-09-16T05:44:26;12.38;;;1.42;;
20482;SDS011;10400;53.198;6.592;2022-09-16T05:46:52;10.63;;;1.35;;
20482;SDS011;10400;53.198;6.592;2022-09-16T05:49:18;6.65;;;1.45;;
20482;SDS011;10400;53.198;6.592;2022-09-16T05:51:47;10.75;;;1.75;;
20482;SDS011;10400;53.198;6.592;2022-09-16T05:54:14;9.00;;;1.55;;
20482;SDS011;10400;53.198;6.592;2022-09-16T05:56:42;8.75;;;1.90;;
20482;SDS011;10400;53.198;6.592;2022-09-16T05:59:09;8.10;;;1.50;;
20482;SDS011;10400;53.198;6.592;2022-09-16T06:01:35;13.80;;;1.67;;
20482;SDS011;10400;53.198;6.592;2022-09-16T06:04:03;7.47;;;1.75;;
20482;SDS011;10400;53.198;6.592;2022-09-16T06:06:38;12.10;;;1.80;;
20482;SDS011;10400;53.198;6.592;2022-09-16T06:11:35;11.20;;;1.50;;
20482;SDS011;10400;53.198;6.592;2022-09-16T06:14:02;10.52;;;1.55;;
20482;SDS011;10400;53.198;6.592;2022-09-16T06:16:28;11.45;;;1.52;;
20482;SDS011;10400;53.198;6.592;2022-09-16T06:18:57;10.80;;;1.90;;
20482;SDS011;10400;53.198;6.592;2022-09-16T06:21:27;14.63;;;1.83;;
20482;SDS011;10400;53.198;6.592;2022-09-16T06:23:53;16.52;;;2.17;;
20482;SDS011;10400;53.198;6.592;2022-09-16T06:26:21;14.52;;;1.65;;
20482;SDS011;10400;53.198;6.592;2022-09-16T06:28:48;9.43;;;1.60;;
20482;SDS011;10400;53.198;6.592;2022-09-16T06:31:16;11.48;;;1.50;;
20482;SDS011;10400;53.198;6.592;2022-09-16T06:33:43;13.55;;;2.10;;
20482;SDS011;10400;53.198;6.592;2022-09-16T06:36:15;7.22;;;1.60;;
20482;SDS011;10400;53.198;6.592;2022-09-16T06:38:43;6.95;;;1.40;;
20482;SDS011;10400;53.198;6.592;2022-09-16T06:41:10;8.90;;;1.30;;
20482;SDS011;10400;53.198;6.592;2022-09-16T06:43:37;10.70;;;1.73;;
20482;SDS011;10400;53.198;6.592;2022-09-16T06:46:04;17.50;;;1.95;;
20482;SDS011;10400;53.198;6.592;2022-09-16T06:48:37;9.18;;;1.60;;
20482;SDS011;10400;53.198;6.592;2022-09-16T06:51:05;7.65;;;1.38;;
20482;SDS011;10400;53.198;6.592;2022-09-16T06:53:34;10.43;;;2.05;;
20482;SDS011;10400;53.198;6.592;2022-09-16T06:56:00;9.07;;;1.73;;
20482;SDS011;10400;53.198;6.592;2022-09-16T06:58:27;13.23;;;2.08;;
20482;SDS011;10400;53.198;6.592;2022-09-16T07:00:56;19.50;;;2.10;;
20482;SDS011;10400;53.198;6.592;2022-09-16T07:03:21;6.95;;;1.20;;
20482;SDS011;10400;53.198;6.592;2022-09-16T07:05:54;14.75;;;1.67;;
20482;SDS011;10400;53.198;6.592;2022-09-16T07:08:26;14.65;;;1.92;;
20482;SDS011;10400;53.198;6.592;2022-09-16T07:10:56;8.75;;;1.38;;
20482;SDS011;10400;53.198;6.592;2022-09-16T07:13:23;13.88;;;1.90;;
20482;SDS011;10400;53.198;6.592;2022-09-16T07:15:49;6.20;;;1.20;;
20482;SDS011;10400;53.198;6.592;2022-09-16T07:18:14;9.90;;;2.13;;
20482;SDS011;10400;53.198;6.592;2022-09-16T07:20:40;11.20;;;1.60;;
20482;SDS011;10400;53.198;6.592;2022-09-16T07:23:06;15.13;;;2.17;;
20482;SDS011;10400;53.198;6.592;2022-09-16T07:25:31;18.88;;;2.33;;
20482;SDS011;10400;53.198;6.592;2022-09-16T07:27:57;11.68;;;2.47;;
20482;SDS011;10400;53.198;6.592;2022-09-16T07:30:23;10.38;;;1.77;;
20482;SDS011;10400;53.198;6.592;2022-09-16T07:32:48;13.73;;;1.88;;
20482;SDS011;10400;53.198;6.592;2022-09-16T07:35:14;8.73;;;1.98;;
20482;SDS011;10400;53.198;6.592;2022-09-16T07:37:39;21.30;;;2.63;;
20482;SDS011;10400;53.198;6.592;2022-09-16T07:40:05;11.35;;;1.83;;
20482;SDS011;10400;53.198;6.592;2022-09-16T07:42:31;14.07;;;2.38;;
20482;SDS011;10400;53.198;6.592;2022-09-16T07:44:57;7.32;;;1.73;;
20482;SDS011;10400;53.198;6.592;2022-09-16T07:47:23;11.05;;;1.90;;
20482;SDS011;10400;53.198;6.592;2022-09-16T07:49:49;12.98;;;1.77;;
20482;SDS011;10400;53.198;6.592;2022-09-16T07:52:20;14.85;;;1.95;;
20482;SDS011;10400;53.198;6.592;2022-09-16T07:54:47;10.13;;;1.77;;
20482;SDS011;10400;53.198;6.592;2022-09-16T07:57:14;11.88;;;1.70;;
20482;SDS011;10400;53.198;6.592;2022-09-16T07:59:40;12.50;;;1.88;;
20482;SDS011;10400;53.198;6.592;2022-09-16T08:02:05;12.90;;;2.13;;
20482;SDS011;10400;53.198;6.592;2022-09-16T08:04:31;12.43;;;2.42;;
20482;SDS011;10400;53.198;6.592;2022-09-16T08:06:57;7.72;;;1.88;;
20482;SDS011;10400;53.198;6.592;2022-09-16T08:09:22;9.32;;;2.15;;
20482;SDS011;10400;53.198;6.592;2022-09-16T08:11:48;12.40;;;2.22;;
20482;SDS011;10400;53.198;6.592;2022-09-16T08:14:14;13.23;;;2.03;;
20482;SDS011;10400;53.198;6.592;2022-09-16T08:16:40;10.88;;;2.15;;
20482;SDS011;10400;53.198;6.592;2022-09-16T08:19:05;11.52;;;1.88;;
20482;SDS011;10400;53.198;6.592;2022-09-16T08:21:31;14.63;;;2.10;;
20482;SDS011;10400;53.198;6.592;2022-09-16T08:23:57;15.82;;;2.63;;
20482;SDS011;10400;53.198;6.592;2022-09-16T08:26:23;15.15;;;2.40;;
20482;SDS011;10400;53.198;6.592;2022-09-16T08:28:49;12.00;;;2.05;;
20482;SDS011;10400;53.198;6.592;2022-09-16T08:31:16;10.93;;;2.20;;
20482;SDS011;10400;53.198;6.592;2022-09-16T08:33:43;11.70;;;1.98;;
20482;SDS011;10400;53.198;6.592;2022-09-16T08:38:41;14.60;;;2.08;;
20482;SDS011;10400;53.198;6.592;2022-09-16T08:44:14;6.15;;;1.70;;
20482;SDS011;10400;53.198;6.592;2022-09-16T08:46:52;11.65;;;1.85;;
20482;SDS011;10400;53.198;6.592;2022-09-16T08:49:29;11.77;;;1.50;;
20482;SDS011;10400;53.198;6.592;2022-09-16T08:51:59;12.07;;;1.70;;
20482;SDS011;10400;53.198;6.592;2022-09-16T08:54:40;12.27;;;1.77;;
20482;SDS011;10400;53.198;6.592;2022-09-16T08:57:14;14.73;;;1.83;;
20482;SDS011;10400;53.198;6.592;2022-09-16T08:59:44;11.77;;;1.40;;
20482;SDS011;10400;53.198;6.592;2022-09-16T09:10:50;16.38;;;1.95;;
20482;SDS011;10400;53.198;6.592;2022-09-16T09:13:37;11.90;;;2.10;;
20482;SDS011;10400;53.198;6.592;2022-09-16T09:27:01;9.93;;;2.00;;
20482;SDS011;10400;53.198;6.592;2022-09-16T09:32:20;11.55;;;1.63;;
20482;SDS011;10400;53.198;6.592;2022-09-16T09:35:05;12.50;;;1.83;;
20482;SDS011;10400;53.198;6.592;2022-09-16T09:40:58;14.27;;;1.90;;
20482;SDS011;10400;53.198;6.592;2022-09-16T09:46:20;8.98;;;1.60;;
20482;SDS011;10400;53.198;6.592;2022-09-16T09:49:00;9.70;;;1.63;;
20482;SDS011;10400;53.198;6.592;2022-09-16T09:51:34;15.95;;;1.40;;
20482;SDS011;10400;53.198;6.592;2022-09-16T09:54:26;7.97;;;1.50;;
20482;SDS011;10400;53.198;6.592;2022-09-16T09:57:05;7.50;;;1.52;;
20482;SDS011;10400;53.198;6.592;2022-09-16T09:59:37;7.88;;;1.40;;
20482;SDS011;10400;53.198;6.592;2022-09-16T10:02:24;9.57;;;1.70;;
20482;SDS011;10400;53.198;6.592;2022-09-16T10:04:50;14.07;;;1.73;;
20482;SDS011;10400;53.198;6.592;2022-09-16T10:07:17;8.35;;;1.50;;
20482;SDS011;10400;53.198;6.592;2022-09-16T10:09:53;13.00;;;1.98;;
20482;SDS011;10400;53.198;6.592;2022-09-16T10:12:25;9.90;;;1.50;;
20482;SDS011;10400;53.198;6.592;2022-09-16T10:14:55;12.15;;;1.55;;
20482;SDS011;10400;53.198;6.592;2022-09-16T10:17:24;7.88;;;1.90;;
20482;SDS011;10400;53.198;6.592;2022-09-16T10:19:56;9.43;;;1.95;;
20482;SDS011;10400;53.198;6.592;2022-09-16T10:22:24;8.68;;;1.63;;
20482;SDS011;10400;53.198;6.592;2022-09-16T10:24:58;10.32;;;1.67;;
20482;SDS011;10400;53.198;6.592;2022-09-16T10:27:30;8.85;;;1.73;;
20482;SDS011;10400;53.198;6.592;2022-09-16T10:32:28;11.82;;;1.83;;
20482;SDS011;10400;53.198;6.592;2022-09-16T10:34:54;14.32;;;1.67;;
20482;SDS011;10400;53.198;6.592;2022-09-16T10:37:20;9.73;;;1.52;;
20482;SDS011;10400;53.198;6.592;2022-09-16T10:39:53;8.05;;;1.23;;
20482;SDS011;10400;53.198;6.592;2022-09-16T10:42:23;13.75;;;1.80;;
20482;SDS011;10400;53.198;6.592;2022-09-16T10:44:51;14.18;;;1.90;;
20482;SDS011;10400;53.198;6.592;2022-09-16T10:47:22;8.07;;;1.83;;
20482;SDS011;10400;53.198;6.592;2022-09-16T10:49:51;9.98;;;1.67;;
20482;SDS011;10400;53.198;6.592;2022-09-16T10:52:25;7.45;;;1.48;;
20482;SDS011;10400;53.198;6.592;2022-09-16T10:54:55;5.97;;;1.50;;
20482;SDS011;10400;53.198;6.592;2022-09-16T10:57:26;5.97;;;1.20;;
20482;SDS011;10400;53.198;6.592;2022-09-16T11:07:58;7.32;;;1.50;;
20482;SDS011;10400;53.198;6.592;2022-09-16T11:10:52;7.95;;;1.40;;
20482;SDS011;10400;53.198;6.592;2022-09-16T11:13:31;10.43;;;1.80;;
20482;SDS011;10400;53.198;6.592;2022-09-16T11:19:28;12.30;;;1.65;;
20482;SDS011;10400;53.198;6.592;2022-09-16T11:30:20;11.90;;;1.98;;
20482;SDS011;10400;53.198;6.592;2022-09-16T11:38:23;13.70;;;1.98;;
20482;SDS011;10400;53.198;6.592;2022-09-16T11:40:54;10.65;;;1.77;;
20482;SDS011;10400;53.198;6.592;2022-09-16T11:49:11;14.93;;;2.25;;
20482;SDS011;10400;53.198;6.592;2022-09-16T11:56:46;15.95;;;2.17;;
20482;SDS011;10400;53.198;6.592;2022-09-16T12:01:56;11.60;;;2.10;;
20482;SDS011;10400;53.198;6.592;2022-09-16T12:04:34;14.15;;;2.00;;
20482;SDS011;10400;53.198;6.592;2022-09-16T12:07:10;15.43;;;2.35;;
20482;SDS011;10400;53.198;6.592;2022-09-16T12:10:04;15.05;;;2.47;;
20482;SDS011;10400;53.198;6.592;2022-09-16T12:12:32;11.63;;;2.50;;
20482;SDS011;10400;53.198;6.592;2022-09-16T12:15:05;15.73;;;2.53;;
20482;SDS011;10400;53.198;6.592;2022-09-16T12:17:41;10.30;;;1.85;;
20482;SDS011;10400;53.198;6.592;2022-09-16T12:20:15;14.10;;;2.42;;
20482;SDS011;10400;53.198;6.592;2022-09-16T12:22:49;18.58;;;2.80;;
20482;SDS011;10400;53.198;6.592;2022-09-16T12:25:40;23.65;;;2.83;;
20482;SDS011;10400;53.198;6.592;2022-09-16T12:28:22;14.60;;;2.40;;
20482;SDS011;10400;53.198;6.592;2022-09-16T12:31:26;11.57;;;2.55;;
20482;SDS011;10400;53.198;6.592;2022-09-16T12:33:55;13.75;;;2.60;;
20482;SDS011;10400;53.198;6.592;2022-09-16T12:36:28;21.35;;;3.10;;
20482;SDS011;10400;53.198;6.592;2022-09-16T12:38:57;11.98;;;2.60;;
20482;SDS011;10400;53.198;6.592;2022-09-16T12:46:54;17.23;;;2.58;;
20482;SDS011;10400;53.198;6.592;2022-09-16T13:00:35;12.55;;;1.42;;
20482;SDS011;10400;53.198;6.592;2022-09-16T13:03:15;15.85;;;1.55;;
20482;SDS011;10400;53.198;6.592;2022-09-16T13:05:47;10.55;;;1.45;;
20482;SDS011;10400;53.198;6.592;2022-09-16T13:11:15;7.15;;;1.05;;
20482;SDS011;10400;53.198;6.592;2022-09-16T13:14:04;9.73;;;1.33;;
20482;SDS011;10400;53.198;6.592;2022-09-16T13:16:52;8.73;;;1.40;;
20482;SDS011;10400;53.198;6.592;2022-09-16T13:21:54;5.68;;;0.93;;
20482;SDS011;10400;53.198;6.592;2022-09-16T13:24:28;5.38;;;0.90;;
20482;SDS011;10400;53.198;6.592;2022-09-16T13:32:40;6.65;;;1.20;;
20482;SDS011;10400;53.198;6.592;2022-09-16T13:37:47;6.07;;;1.35;;
20482;SDS011;10400;53.198;6.592;2022-09-16T13:40:22;4.85;;;1.00;;
20482;SDS011;10400;53.198;6.592;2022-09-16T13:42:50;6.18;;;0.88;;
20482;SDS011;10400;53.198;6.592;2022-09-16T13:45:31;7.03;;;1.00;;
20482;SDS011;10400;53.198;6.592;2022-09-16T13:47:57;4.68;;;1.08;;
20482;SDS011;10400;53.198;6.592;2022-09-16T13:50:29;4.88;;;0.90;;
20482;SDS011;10400;53.198;6.592;2022-09-16T13:52:55;8.07;;;1.05;;
20482;SDS011;10400;53.198;6.592;2022-09-16T13:55:22;6.53;;;1.00;;
20482;SDS011;10400;53.198;6.592;2022-09-16T13:58:13;17.08;;;1.83;;
20482;SDS011;10400;53.198;6.592;2022-09-16T14:00:57;11.50;;;1.67;;
20482;SDS011;10400;53.198;6.592;2022-09-16T14:11:39;11.40;;;2.10;;
20482;SDS011;10400;53.198;6.592;2022-09-16T14:14:10;15.07;;;2.40;;
20482;SDS011;10400;53.198;6.592;2022-09-16T14:16:39;14.23;;;2.30;;
20482;SDS011;10400;53.198;6.592;2022-09-16T14:19:10;19.00;;;2.20;;
20482;SDS011;10400;53.198;6.592;2022-09-16T14:21:44;14.73;;;3.00;;
20482;SDS011;10400;53.198;6.592;2022-09-16T14:24:16;14.30;;;2.20;;
20482;SDS011;10400;53.198;6.592;2022-09-16T14:26:50;11.95;;;1.52;;
20482;SDS011;10400;53.198;6.592;2022-09-16T14:29:20;11.05;;;1.88;;
20482;SDS011;10400;53.198;6.592;2022-09-16T14:31:47;10.38;;;1.50;;
20482;SDS011;10400;53.198;6.592;2022-09-16T14:34:18;11.23;;;1.50;;
20482;SDS011;10400;53.198;6.592;2022-09-16T14:36:57;11.38;;;1.85;;
20482;SDS011;10400;53.198;6.592;2022-09-16T14:39:24;5.82;;;1.27;;
20482;SDS011;10400;53.198;6.592;2022-09-16T14:41:53;9.25;;;1.40;;
20482;SDS011;10400;53.198;6.592;2022-09-16T14:47:02;7.43;;;1.33;;
20482;SDS011;10400;53.198;6.592;2022-09-16T14:49:39;6.85;;;1.33;;
20482;SDS011;10400;53.198;6.592;2022-09-16T14:52:14;8.23;;;1.25;;
20482;SDS011;10400;53.198;6.592;2022-09-16T14:54:43;6.53;;;1.20;;
20482;SDS011;10400;53.198;6.592;2022-09-16T14:57:13;9.00;;;1.33;;
20482;SDS011;10400;53.198;6.592;2022-09-16T14:59:42;6.85;;;1.58;;
20482;SDS011;10400;53.198;6.592;2022-09-16T15:05:17;5.75;;;1.65;;
20482;SDS011;10400;53.198;6.592;2022-09-16T15:07:45;10.65;;;2.08;;
20482;SDS011;10400;53.198;6.592;2022-09-16T15:12:53;13.00;;;2.30;;
20482;SDS011;10400;53.198;6.592;2022-09-16T15:15:25;11.70;;;1.73;;
20482;SDS011;10400;53.198;6.592;2022-09-16T15:18:03;12.23;;;2.28;;
20482;SDS011;10400;53.198;6.592;2022-09-16T15:20:36;12.18;;;1.77;;
20482;SDS011;10400;53.198;6.592;2022-09-16T15:23:04;11.15;;;2.15;;
20482;SDS011;10400;53.198;6.592;2022-09-16T15:25:32;17.42;;;3.38;;
20482;SDS011;10400;53.198;6.592;2022-09-16T15:28:03;13.90;;;2.17;;
20482;SDS011;10400;53.198;6.592;2022-09-16T15:30:47;11.43;;;1.88;;
20482;SDS011;10400;53.198;6.592;2022-09-16T15:36:01;13.48;;;1.77;;
20482;SDS011;10400;53.198;6.592;2022-09-16T15:38:28;7.15;;;1.70;;
20482;SDS011;10400;53.198;6.592;2022-09-16T15:43:28;6.85;;;1.48;;
20482;SDS011;10400;53.198;6.592;2022-09-16T15:46:00;12.32;;;1.95;;
20482;SDS011;10400;53.198;6.592;2022-09-16T15:48:33;11.07;;;1.55;;
20482;SDS011;10400;53.198;6.592;2022-09-16T15:51:18;9.95;;;1.52;;
20482;SDS011;10400;53.198;6.592;2022-09-16T15:53:49;10.10;;;1.52;;
20482;SDS011;10400;53.198;6.592;2022-09-16T16:02:22;12.45;;;2.30;;
20482;SDS011;10400;53.198;6.592;2022-09-16T16:10:19;12.60;;;2.40;;
20482;SDS011;10400;53.198;6.592;2022-09-16T16:12:52;12.27;;;2.35;;
20482;SDS011;10400;53.198;6.592;2022-09-16T16:15:20;10.15;;;2.38;;
20482;SDS011;10400;53.198;6.592;2022-09-16T16:17:59;11.48;;;2.13;;
20482;SDS011;10400;53.198;6.592;2022-09-16T16:20:27;17.50;;;2.35;;
20482;SDS011;10400;53.198;6.592;2022-09-16T16:22:56;10.63;;;2.13;;
20482;SDS011;10400;53.198;6.592;2022-09-16T16:25:22;12.38;;;2.05;;
20482;SDS011;10400;53.198;6.592;2022-09-16T16:27:47;11.05;;;1.75;;
20482;SDS011;10400;53.198;6.592;2022-09-16T16:30:13;11.23;;;1.85;;
20482;SDS011;10400;53.198;6.592;2022-09-16T16:32:38;7.60;;;2.20;;
20482;SDS011;10400;53.198;6.592;2022-09-16T16:35:04;15.73;;;2.38;;
20482;SDS011;10400;53.198;6.592;2022-09-16T16:37:30;15.43;;;2.10;;
20482;SDS011;10400;53.198;6.592;2022-09-16T16:39:56;12.15;;;1.98;;
20482;SDS011;10400;53.198;6.592;2022-09-16T16:42:22;13.85;;;2.08;;
20482;SDS011;10400;53.198;6.592;2022-09-16T16:44:48;10.60;;;1.88;;
20482;SDS011;10400;53.198;6.592;2022-09-16T16:47:14;11.02;;;1.48;;
20482;SDS011;10400;53.198;6.592;2022-09-16T16:49:39;14.38;;;2.20;;
20482;SDS011;10400;53.198;6.592;2022-09-16T16:52:06;12.35;;;2.08;;
20482;SDS011;10400;53.198;6.592;2022-09-16T16:54:32;12.15;;;1.70;;
20482;SDS011;10400;53.198;6.592;2022-09-16T16:56:58;10.60;;;1.38;;
20482;SDS011;10400;53.198;6.592;2022-09-16T16:59:24;16.63;;;1.70;;
20482;SDS011;10400;53.198;6.592;2022-09-16T17:01:51;11.07;;;1.80;;
20482;SDS011;10400;53.198;6.592;2022-09-16T17:04:18;13.18;;;1.88;;
20482;SDS011;10400;53.198;6.592;2022-09-16T17:06:44;7.82;;;1.50;;
20482;SDS011;10400;53.198;6.592;2022-09-16T17:09:10;10.10;;;1.50;;
20482;SDS011;10400;53.198;6.592;2022-09-16T17:11:37;10.80;;;1.30;;
20482;SDS011;10400;53.198;6.592;2022-09-16T17:14:18;10.65;;;1.63;;
20482;SDS011;10400;53.198;6.592;2022-09-16T17:16:44;6.00;;;1.05;;
20482;SDS011;10400;53.198;6.592;2022-09-16T17:19:11;7.50;;;1.50;;
20482;SDS011;10400;53.198;6.592;2022-09-16T17:21:37;7.68;;;1.45;;
20482;SDS011;10400;53.198;6.592;2022-09-16T17:24:04;11.18;;;2.20;;
20482;SDS011;10400;53.198;6.592;2022-09-16T17:26:31;9.77;;;1.92;;
20482;SDS011;10400;53.198;6.592;2022-09-16T17:28:57;11.27;;;2.00;;
20482;SDS011;10400;53.198;6.592;2022-09-16T17:31:27;13.50;;;2.03;;
20482;SDS011;10400;53.198;6.592;2022-09-16T17:33:56;17.27;;;3.03;;
20482;SDS011;10400;53.198;6.592;2022-09-16T17:36:27;11.07;;;1.70;;
20482;SDS011;10400;53.198;6.592;2022-09-16T17:39:00;14.75;;;1.90;;
20482;SDS011;10400;53.198;6.592;2022-09-16T17:41:27;12.65;;;1.92;;
20482;SDS011;10400;53.198;6.592;2022-09-16T17:43:54;10.30;;;2.10;;
20482;SDS011;10400;53.198;6.592;2022-09-16T17:46:20;11.57;;;2.05;;
20482;SDS011;10400;53.198;6.592;2022-09-16T17:48:49;17.30;;;2.97;;
20482;SDS011;10400;53.198;6.592;2022-09-16T18:01:19;31.98;;;3.92;;
20482;SDS011;10400;53.198;6.592;2022-09-16T18:04:05;20.80;;;3.53;;
20482;SDS011;10400;53.198;6.592;2022-09-16T18:09:54;13.70;;;3.22;;
20482;SDS011;10400;53.198;6.592;2022-09-16T18:12:20;17.88;;;3.22;;
20482;SDS011;10400;53.198;6.592;2022-09-16T18:14:46;20.10;;;2.67;;
20482;SDS011;10400;53.198;6.592;2022-09-16T18:17:11;13.05;;;2.10;;
20482;SDS011;10400;53.198;6.592;2022-09-16T18:19:37;17.30;;;2.58;;
20482;SDS011;10400;53.198;6.592;2022-09-16T18:22:04;10.40;;;2.38;;
20482;SDS011;10400;53.198;6.592;2022-09-16T18:24:30;18.05;;;2.38;;
20482;SDS011;10400;53.198;6.592;2022-09-16T18:26:55;11.77;;;2.13;;
20482;SDS011;10400;53.198;6.592;2022-09-16T18:29:21;17.13;;;2.40;;
20482;SDS011;10400;53.198;6.592;2022-09-16T18:31:47;12.57;;;1.90;;
20482;SDS011;10400;53.198;6.592;2022-09-16T18:34:14;15.88;;;2.35;;